createdAt,value
2024-02-19T00:00:31.144Z,81.82
2024-02-19T00:01:31.236Z,81.93
2024-02-19T00:02:31.074Z,81.72
2024-02-19T00:03:31.060Z,81.93
2024-02-19T00:04:31.124Z,81.72
2024-02-19T00:05:31.040Z,81.82
2024-02-19T00:06:31.108Z,81.62
2024-02-19T00:07:31.122Z,81.62
2024-02-19T00:08:31.026Z,81.51
2024-02-19T00:09:31.077Z,81.51
2024-02-19T00:10:30.986Z,81.62
2024-02-19T00:11:31.088Z,81.62
2024-02-19T00:12:31.046Z,81.62
2024-02-19T00:13:30.962Z,81.55
2024-02-19T00:14:30.937Z,81.62
2024-02-19T00:15:30.923Z,81.96
2024-02-19T00:16:30.921Z,81.96
2024-02-19T00:17:30.920Z,81.86
2024-02-19T00:18:30.982Z,81.65
2024-02-19T00:19:31.065Z,81.76
2024-02-19T00:20:30.873Z,81.62
2024-02-19T00:21:30.862Z,81.65
2024-02-19T00:22:30.859Z,81.65
2024-02-19T00:23:30.837Z,81.86
2024-02-19T00:24:30.823Z,81.65
2024-02-19T00:25:30.939Z,81.65
2024-02-19T00:26:30.804Z,81.65
2024-02-19T00:27:30.793Z,81.62
2024-02-19T00:28:30.784Z,81.62
2024-02-19T00:29:30.768Z,81.55
2024-02-19T00:30:30.760Z,81.62
2024-02-19T00:31:30.755Z,81.55
2024-02-19T00:32:30.916Z,81.55
2024-02-19T00:33:30.846Z,81.51
2024-02-19T00:34:30.805Z,82.17
2024-02-19T00:35:30.722Z,81.62
2024-02-19T00:36:30.688Z,81.51
2024-02-19T00:37:30.707Z,81.55
2024-02-19T00:38:30.669Z,81.51
2024-02-19T00:39:30.683Z,82.14
2024-02-19T00:40:30.641Z,82.28
2024-02-19T00:41:30.654Z,82.24
2024-02-19T00:42:30.631Z,81.55
2024-02-19T00:43:30.638Z,81.65
2024-02-19T00:44:30.598Z,81.86
2024-02-19T00:45:30.585Z,81.30
2024-02-19T00:46:30.579Z,81.30
2024-02-19T00:47:30.580Z,81.45
2024-02-19T00:48:30.639Z,81.23
2024-02-19T00:49:30.653Z,81.13
2024-02-19T00:50:30.592Z,80.92
2024-02-19T00:51:30.538Z,81.13
2024-02-19T00:52:30.511Z,81.23
2024-02-19T00:53:30.496Z,81.13
2024-02-19T00:54:30.509Z,80.92
2024-02-19T00:55:30.604Z,80.92
2024-02-19T00:56:30.492Z,81.02
2024-02-19T00:57:30.480Z,81.13
2024-02-19T00:58:30.438Z,80.92
2024-02-19T00:59:30.428Z,81.65
2024-02-19T01:00:30.424Z,81.45
2024-02-19T01:01:30.522Z,81.13
2024-02-19T01:02:30.396Z,82.38
2024-02-19T01:03:30.389Z,81.55
2024-02-19T01:04:30.455Z,81.55
2024-02-19T01:05:30.411Z,81.69
2024-02-19T01:06:30.349Z,81.76
2024-02-19T01:07:30.408Z,81.96
2024-02-19T01:08:30.332Z,82.00
2024-02-19T01:09:30.317Z,81.96
2024-02-19T01:10:30.310Z,81.79
2024-02-19T01:11:30.329Z,81.90
2024-02-19T01:12:30.284Z,81.69
2024-02-19T01:13:30.325Z,81.79
2024-02-19T01:14:30.273Z,81.59
2024-02-19T01:15:30.253Z,81.59
2024-02-19T01:16:30.238Z,81.69
2024-02-19T01:17:30.287Z,81.59
2024-02-19T01:18:30.232Z,81.90
2024-02-19T01:19:30.332Z,81.79
2024-02-19T01:20:30.228Z,81.79
2024-02-19T01:21:30.213Z,81.79
2024-02-19T01:22:30.174Z,81.48
2024-02-19T01:23:30.164Z,81.59
2024-02-19T01:24:30.218Z,81.69
2024-02-19T01:25:30.185Z,81.59
2024-02-19T01:26:30.122Z,81.16
2024-02-19T01:27:30.114Z,81.48
2024-02-19T01:28:30.107Z,81.48
2024-02-19T01:29:30.114Z,81.48
2024-02-19T01:30:30.080Z,81.48
2024-02-19T01:31:30.094Z,81.90
2024-02-19T01:32:30.101Z,81.69
2024-02-19T01:33:30.110Z,81.79
2024-02-19T01:34:30.109Z,81.59
2024-02-19T01:35:30.025Z,81.79
2024-02-19T01:36:30.032Z,81.69
2024-02-19T01:37:30.021Z,81.48
2024-02-19T01:38:30.691Z,81.79
2024-02-19T01:39:29.980Z,81.59
2024-02-19T01:40:30.018Z,81.93
2024-02-19T01:41:30.013Z,81.69
2024-02-19T01:42:29.953Z,81.90
2024-02-19T01:43:30.054Z,82.00
2024-02-19T01:44:29.923Z,81.90
2024-02-19T01:45:29.952Z,82.00
2024-02-19T01:46:29.915Z,81.90
2024-02-19T01:47:29.926Z,81.79
2024-02-19T01:48:29.908Z,81.93
2024-02-19T01:49:29.981Z,81.93
2024-02-19T01:50:29.890Z,82.04
2024-02-19T01:51:29.844Z,81.93
2024-02-19T01:52:29.945Z,81.93
2024-02-19T01:53:29.824Z,81.93
2024-02-19T01:54:29.814Z,81.93
2024-02-19T01:55:29.924Z,82.04
2024-02-19T01:56:29.790Z,81.83
2024-02-19T01:57:29.781Z,81.93
2024-02-19T01:58:29.766Z,81.93
2024-02-19T01:59:29.824Z,81.93
2024-02-19T02:00:29.809Z,81.93
2024-02-19T02:01:29.873Z,81.93
2024-02-19T02:02:29.782Z,81.73
2024-02-19T02:03:29.764Z,81.83
2024-02-19T02:04:29.765Z,82.04
2024-02-19T02:05:29.687Z,82.04
2024-02-19T02:06:29.702Z,81.93
2024-02-19T02:07:29.695Z,82.04
2024-02-19T02:08:29.654Z,82.07
2024-02-19T02:09:29.649Z,82.04
2024-02-19T02:10:29.704Z,82.14
2024-02-19T02:11:29.719Z,81.93
2024-02-19T02:12:29.608Z,81.93
2024-02-19T02:13:29.655Z,81.73
2024-02-19T02:14:29.585Z,81.83
2024-02-19T02:15:29.587Z,81.73
2024-02-19T02:16:29.590Z,81.73
2024-02-19T02:17:29.660Z,81.62
2024-02-19T02:18:29.664Z,82.29
2024-02-19T02:19:29.723Z,82.35
2024-02-19T02:20:29.558Z,82.29
2024-02-19T02:21:29.529Z,81.24
2024-02-19T02:22:29.570Z,82.39
2024-02-19T02:23:29.565Z,82.50
2024-02-19T02:24:29.532Z,82.39
2024-02-19T02:25:29.507Z,82.29
2024-02-19T02:26:29.446Z,82.50
2024-02-19T02:27:29.442Z,82.18
2024-02-19T02:28:29.432Z,82.50
2024-02-19T02:29:29.440Z,82.18
2024-02-19T02:30:29.465Z,82.29
2024-02-19T02:31:29.405Z,81.76
2024-02-19T02:32:29.418Z,81.97
2024-02-19T02:33:29.603Z,81.45
2024-02-19T02:34:29.457Z,80.93
2024-02-19T02:35:29.350Z,81.28
2024-02-19T02:36:29.361Z,81.35
2024-02-19T02:37:29.551Z,81.24
2024-02-19T02:38:29.346Z,81.24
2024-02-19T02:39:29.397Z,81.03
2024-02-19T02:40:29.403Z,81.18
2024-02-19T02:41:29.282Z,81.45
2024-02-19T02:42:29.271Z,81.03
2024-02-19T02:43:29.311Z,81.56
2024-02-19T02:44:29.251Z,81.66
2024-02-19T02:45:29.251Z,80.93
2024-02-19T02:46:29.263Z,81.13
2024-02-19T02:47:29.220Z,81.13
2024-02-19T02:48:29.270Z,81.56
2024-02-19T02:49:29.344Z,81.45
2024-02-19T02:50:29.186Z,81.03
2024-02-19T02:51:29.195Z,81.03
2024-02-19T02:52:29.165Z,81.45
2024-02-19T02:53:29.175Z,81.35
2024-02-19T02:54:29.160Z,82.32
2024-02-19T02:55:29.236Z,81.97
2024-02-19T02:56:29.116Z,82.07
2024-02-19T02:57:29.114Z,81.87
2024-02-19T02:58:29.704Z,81.87
2024-02-19T02:59:29.092Z,81.87
2024-02-19T03:00:29.077Z,81.87
2024-02-19T03:01:29.238Z,81.97
2024-02-19T03:02:29.064Z,81.62
2024-02-19T03:03:29.052Z,81.83
2024-02-19T03:04:29.096Z,81.83
2024-02-19T03:05:29.038Z,81.93
2024-02-19T03:06:29.120Z,82.04
2024-02-19T03:07:29.165Z,82.04
2024-02-19T03:08:28.985Z,82.04
2024-02-19T03:09:28.984Z,81.93
2024-02-19T03:10:28.958Z,82.14
2024-02-19T03:11:29.010Z,81.90
2024-02-19T03:12:28.948Z,82.00
2024-02-19T03:13:29.025Z,82.00
2024-02-19T03:14:28.925Z,82.00
2024-02-19T03:15:28.901Z,82.00
2024-02-19T03:16:28.900Z,81.90
2024-02-19T03:17:28.966Z,81.79
2024-02-19T03:18:28.925Z,81.69
2024-02-19T03:19:28.951Z,81.69
2024-02-19T03:20:28.855Z,82.00
2024-02-19T03:21:28.870Z,81.90
2024-02-19T03:22:28.830Z,81.69
2024-02-19T03:23:28.825Z,81.59
2024-02-19T03:24:28.823Z,81.79
2024-02-19T03:25:28.886Z,81.48
2024-02-19T03:26:37.639Z,81.90
2024-02-19T03:27:29.771Z,81.59
2024-02-19T03:28:28.760Z,81.90
2024-02-19T03:29:28.776Z,81.79
2024-02-19T03:30:28.743Z,81.79
2024-02-19T03:31:28.741Z,81.79
2024-02-19T03:32:28.723Z,81.79
2024-02-19T03:33:28.782Z,81.79
2024-02-19T03:34:28.999Z,81.79
2024-02-19T03:35:28.683Z,81.79
2024-02-19T03:36:28.680Z,81.79
2024-02-19T03:37:28.818Z,81.79
2024-02-19T03:38:28.654Z,81.79
2024-02-19T03:39:28.638Z,81.79
2024-02-19T03:40:28.672Z,81.79
2024-02-19T03:41:28.619Z,81.79
2024-02-19T03:42:28.616Z,81.79
2024-02-19T03:43:28.704Z,81.69
2024-02-19T03:44:28.583Z,82.00
2024-02-19T03:45:28.583Z,81.79
2024-02-19T03:46:28.569Z,81.90
2024-02-19T03:47:28.618Z,81.69
2024-02-19T03:48:28.658Z,81.69
2024-02-19T03:49:28.590Z,81.79
2024-02-19T03:50:28.516Z,82.31
2024-02-19T03:51:28.525Z,82.10
2024-02-19T03:52:28.520Z,81.48
2024-02-19T03:53:28.608Z,81.27
2024-02-19T03:54:28.511Z,82.00
2024-02-19T03:55:28.655Z,82.00
2024-02-19T03:56:28.454Z,81.59
2024-02-19T03:57:28.437Z,81.69
2024-02-19T03:58:28.425Z,82.00
2024-02-19T03:59:28.491Z,82.10
2024-02-19T04:00:28.438Z,82.10
2024-02-19T04:01:28.486Z,81.69
2024-02-19T04:02:28.428Z,82.00
2024-02-19T04:03:28.448Z,82.10
2024-02-19T04:04:28.426Z,82.00
2024-02-19T04:05:28.371Z,82.07
2024-02-19T04:06:28.397Z,81.65
2024-02-19T04:07:28.393Z,81.86
2024-02-19T04:08:28.336Z,81.96
2024-02-19T04:09:28.355Z,81.96
2024-02-19T04:10:28.345Z,81.96
2024-02-19T04:11:28.315Z,82.03
2024-02-19T04:12:28.287Z,81.65
2024-02-19T04:13:28.450Z,81.72
2024-02-19T04:14:28.256Z,81.41
2024-02-19T04:15:28.247Z,81.62
2024-02-19T04:16:28.279Z,82.24
2024-02-19T04:17:28.277Z,81.93
2024-02-19T04:18:28.296Z,81.51
2024-02-19T04:19:28.244Z,81.09
2024-02-19T04:20:28.186Z,81.41
2024-02-19T04:21:28.211Z,81.41
2024-02-19T04:22:28.253Z,81.26
2024-02-19T04:23:28.150Z,81.99
2024-02-19T04:24:28.171Z,81.47
2024-02-19T04:25:28.216Z,81.79
2024-02-19T04:26:28.140Z,81.79
2024-02-19T04:27:28.166Z,81.79
2024-02-19T04:28:28.153Z,81.58
2024-02-19T04:29:28.118Z,81.47
2024-02-19T04:30:28.106Z,81.47
2024-02-19T04:31:28.099Z,82.20
2024-02-19T04:32:28.066Z,81.58
2024-02-19T04:33:28.135Z,81.37
2024-02-19T04:34:28.199Z,81.79
2024-02-19T04:35:28.020Z,81.16
2024-02-19T04:36:28.014Z,81.26
2024-02-19T04:37:28.136Z,81.16
2024-02-19T04:38:27.986Z,81.79
2024-02-19T04:39:27.974Z,81.79
2024-02-19T04:40:28.039Z,81.47
2024-02-19T04:41:27.972Z,81.26
2024-02-19T04:42:28.009Z,81.68
2024-02-19T04:43:28.127Z,81.68
2024-02-19T04:44:27.929Z,81.47
2024-02-19T04:45:27.933Z,81.68
2024-02-19T04:46:28.028Z,81.58
2024-02-19T04:47:27.896Z,81.05
2024-02-19T04:48:27.893Z,81.05
2024-02-19T04:49:27.928Z,81.37
2024-02-19T04:50:27.921Z,81.89
2024-02-19T04:51:27.840Z,80.85
2024-02-19T04:52:27.891Z,81.58
2024-02-19T04:53:27.822Z,81.05
2024-02-19T04:54:27.811Z,81.58
2024-02-19T04:55:27.860Z,81.47
2024-02-19T04:56:27.817Z,82.31
2024-02-19T04:57:27.814Z,81.47
2024-02-19T04:58:27.834Z,81.99
2024-02-19T04:59:27.758Z,81.79
2024-02-19T05:00:27.739Z,81.37
2024-02-19T05:01:27.833Z,81.16
2024-02-19T05:02:27.724Z,81.16
2024-02-19T05:03:27.722Z,81.89
2024-02-19T05:04:27.863Z,82.10
2024-02-19T05:05:27.750Z,81.75
2024-02-19T05:06:27.691Z,81.75
2024-02-19T05:07:27.786Z,81.79
2024-02-19T05:08:27.710Z,81.54
2024-02-19T05:09:27.632Z,81.75
2024-02-19T05:10:27.672Z,81.54
2024-02-19T05:11:27.693Z,81.43
2024-02-19T05:12:27.615Z,81.54
2024-02-19T05:13:27.698Z,81.65
2024-02-19T05:14:27.610Z,82.27
2024-02-19T05:15:27.574Z,81.75
2024-02-19T05:16:27.629Z,81.60
2024-02-19T05:17:27.582Z,81.71
2024-02-19T05:18:27.584Z,81.43
2024-02-19T05:19:27.583Z,81.09
2024-02-19T05:20:27.514Z,81.71
2024-02-19T05:21:27.510Z,81.92
2024-02-19T05:22:27.563Z,81.09
2024-02-19T05:23:27.478Z,80.88
2024-02-19T05:24:27.492Z,81.50
2024-02-19T05:25:27.590Z,81.81
2024-02-19T05:26:27.458Z,81.19
2024-02-19T05:27:27.470Z,81.88
2024-02-19T05:28:27.493Z,80.74
2024-02-19T05:29:27.434Z,81.05
2024-02-19T05:30:27.413Z,81.67
2024-02-19T05:31:27.648Z,81.67
2024-02-19T05:32:27.374Z,81.50
2024-02-19T05:33:27.367Z,81.40
2024-02-19T05:34:27.396Z,81.36
2024-02-19T05:35:27.428Z,81.46
2024-02-19T05:36:27.330Z,81.57
2024-02-19T05:37:27.370Z,81.67
2024-02-19T05:38:27.341Z,81.05
2024-02-19T05:39:27.297Z,81.26
2024-02-19T05:40:27.568Z,81.46
2024-02-19T05:41:27.290Z,81.46
2024-02-19T05:42:27.263Z,81.36
2024-02-19T05:43:27.353Z,81.46
2024-02-19T05:44:27.258Z,81.46
2024-02-19T05:45:27.257Z,81.36
2024-02-19T05:46:27.337Z,81.36
2024-02-19T05:47:27.264Z,81.53
2024-02-19T05:48:27.273Z,81.43
2024-02-19T05:49:27.387Z,81.22
2024-02-19T05:50:27.176Z,81.43
2024-02-19T05:51:27.172Z,81.43
2024-02-19T05:52:27.204Z,80.91
2024-02-19T05:53:27.186Z,81.32
2024-02-19T05:54:27.176Z,81.22
2024-02-19T05:55:28.586Z,81.32
2024-02-19T05:56:27.105Z,81.01
2024-02-19T05:57:27.088Z,81.60
2024-02-19T05:58:27.140Z,81.18
2024-02-19T05:59:27.094Z,82.01
2024-02-19T06:00:27.783Z,81.39
2024-02-19T06:01:27.334Z,81.39
2024-02-19T06:02:27.277Z,81.49
2024-02-19T06:03:27.036Z,81.08
2024-02-19T06:04:27.106Z,81.08
2024-02-19T06:05:27.033Z,81.56
2024-02-19T06:06:27.089Z,81.35
2024-02-19T06:07:27.021Z,81.25
2024-02-19T06:08:26.968Z,81.25
2024-02-19T06:09:27.006Z,81.39
2024-02-19T06:10:27.013Z,81.35
2024-02-19T06:11:26.996Z,81.56
2024-02-19T06:12:26.922Z,81.60
2024-02-19T06:13:27.017Z,81.46
2024-02-19T06:14:26.907Z,81.46
2024-02-19T06:15:26.916Z,81.35
2024-02-19T06:16:26.906Z,81.67
2024-02-19T06:17:26.955Z,81.67
2024-02-19T06:18:27.141Z,81.77
2024-02-19T06:19:26.953Z,81.67
2024-02-19T06:20:26.844Z,81.52
2024-02-19T06:21:26.844Z,81.32
2024-02-19T06:22:26.833Z,81.42
2024-02-19T06:23:26.815Z,81.56
2024-02-19T06:24:26.810Z,81.63
2024-02-19T06:25:26.860Z,81.63
2024-02-19T06:26:26.792Z,81.52
2024-02-19T06:27:26.781Z,81.52
2024-02-19T06:28:26.780Z,81.32
2024-02-19T06:29:26.753Z,81.42
2024-02-19T06:30:26.751Z,81.28
2024-02-19T06:31:26.807Z,81.49
2024-02-19T06:32:26.731Z,81.38
2024-02-19T06:33:26.805Z,81.38
2024-02-19T06:34:26.845Z,81.49
2024-02-19T06:35:26.789Z,81.49
2024-02-19T06:36:26.685Z,81.38
2024-02-19T06:37:26.706Z,81.56
2024-02-19T06:38:26.652Z,81.56
2024-02-19T06:39:26.717Z,81.35
2024-02-19T06:40:26.721Z,81.20
2024-02-19T06:41:26.701Z,81.30
2024-02-19T06:42:27.247Z,81.30
2024-02-19T06:43:26.721Z,81.10
2024-02-19T06:44:26.577Z,81.37
2024-02-19T06:45:26.568Z,81.06
2024-02-19T06:46:26.582Z,81.37
2024-02-19T06:47:26.545Z,81.34
2024-02-19T06:48:26.616Z,81.34
2024-02-19T06:49:26.656Z,81.23
2024-02-19T06:50:27.246Z,81.51
2024-02-19T06:51:26.500Z,81.40
2024-02-19T06:52:27.315Z,81.09
2024-02-19T06:53:26.474Z,81.51
2024-02-19T06:54:30.539Z,81.05
2024-02-19T06:55:27.986Z,81.16
2024-02-19T06:56:27.257Z,81.37
2024-02-19T06:57:26.416Z,81.33
2024-02-19T06:58:27.331Z,81.12
2024-02-19T06:59:26.407Z,81.33
2024-02-19T07:00:26.407Z,81.23
2024-02-19T07:01:26.444Z,81.09
2024-02-19T07:02:27.309Z,81.02
2024-02-19T07:03:26.387Z,80.88
2024-02-19T07:04:26.429Z,81.39
2024-02-19T07:05:34.520Z,81.39
2024-02-19T07:06:26.441Z,80.67
2024-02-19T07:07:26.386Z,80.67
2024-02-19T07:08:26.304Z,80.88
2024-02-19T07:09:26.280Z,80.67
2024-02-19T07:10:26.314Z,80.63
2024-02-19T07:11:26.332Z,80.74
2024-02-19T07:12:26.242Z,80.53
2024-02-19T07:13:26.344Z,80.26
2024-02-19T07:14:26.221Z,80.94
2024-02-19T07:15:26.240Z,80.22
2024-02-19T07:16:26.238Z,80.43
2024-02-19T07:17:26.313Z,80.53
2024-02-19T07:18:26.387Z,80.22
2024-02-19T07:19:26.270Z,80.22
2024-02-19T07:20:26.174Z,80.43
2024-02-19T07:21:26.202Z,80.32
2024-02-19T07:22:26.306Z,80.63
2024-02-19T07:23:26.139Z,80.22
2024-02-19T07:24:26.115Z,80.43
2024-02-19T07:25:26.152Z,80.53
2024-02-19T07:26:26.224Z,80.22
2024-02-19T07:27:26.073Z,80.84
2024-02-19T07:28:26.155Z,80.74
2024-02-19T07:29:26.143Z,81.42
2024-02-19T07:30:26.117Z,81.35
2024-02-19T07:31:26.198Z,80.80
2024-02-19T07:32:26.033Z,81.21
2024-02-19T07:33:26.062Z,81.15
2024-02-19T07:34:26.151Z,81.11
2024-02-19T07:35:25.991Z,80.90
2024-02-19T07:36:25.974Z,81.21
2024-02-19T07:37:26.196Z,81.21
2024-02-19T07:38:25.981Z,81.11
2024-02-19T07:39:25.943Z,80.87
2024-02-19T07:40:26.002Z,80.97
2024-02-19T07:41:25.933Z,81.07
2024-02-19T07:42:25.907Z,80.87
2024-02-19T07:43:25.946Z,80.76
2024-02-19T07:44:25.882Z,80.87
2024-02-19T07:45:25.886Z,80.87
2024-02-19T07:46:25.921Z,80.11
2024-02-19T07:47:25.898Z,80.93
2024-02-19T07:48:25.899Z,80.73
2024-02-19T07:49:25.968Z,81.14
2024-02-19T07:50:25.898Z,80.69
2024-02-19T07:51:25.853Z,81.31
2024-02-19T07:52:25.880Z,81.00
2024-02-19T07:53:26.330Z,80.28
2024-02-19T07:54:25.786Z,80.34
2024-02-19T07:55:25.911Z,81.17
2024-02-19T07:56:26.330Z,81.17
2024-02-19T07:57:25.743Z,80.44
2024-02-19T07:58:25.856Z,80.20
2024-02-19T07:59:25.711Z,80.00
2024-02-19T08:00:25.701Z,80.16
2024-02-19T08:01:25.869Z,80.37
2024-02-19T08:02:25.764Z,79.86
2024-02-19T08:03:25.682Z,80.44
2024-02-19T08:04:25.727Z,80.54
2024-02-19T08:05:25.719Z,80.23
2024-02-19T08:06:25.706Z,80.51
2024-02-19T08:07:25.662Z,80.19
2024-02-19T08:08:25.615Z,80.30
2024-02-19T08:09:25.629Z,80.30
2024-02-19T08:10:25.689Z,79.99
2024-02-19T08:11:25.575Z,80.30
2024-02-19T08:12:25.830Z,80.30
2024-02-19T08:13:25.764Z,79.88
2024-02-19T08:14:25.586Z,80.36
2024-02-19T08:15:25.538Z,80.40
2024-02-19T08:16:28.281Z,80.16
2024-02-19T08:17:26.298Z,80.19
2024-02-19T08:18:25.631Z,80.40
2024-02-19T08:19:25.675Z,80.40
2024-02-19T08:20:25.489Z,79.58
2024-02-19T08:21:26.309Z,80.36
2024-02-19T08:22:25.585Z,80.05
2024-02-19T08:23:25.461Z,80.05
2024-02-19T08:24:25.456Z,80.47
2024-02-19T08:25:25.614Z,79.85
2024-02-19T08:26:25.445Z,80.16
2024-02-19T08:27:25.429Z,80.30
2024-02-19T08:28:25.530Z,80.05
2024-02-19T08:29:25.468Z,80.26
2024-02-19T08:30:25.487Z,79.85
2024-02-19T08:31:25.438Z,79.85
2024-02-19T08:32:25.467Z,80.26
2024-02-19T08:33:25.367Z,81.09
2024-02-19T08:34:25.696Z,81.09
2024-02-19T08:35:25.635Z,80.47
2024-02-19T08:36:25.348Z,80.53
2024-02-19T08:37:25.500Z,80.53
2024-02-19T08:38:25.384Z,80.02
2024-02-19T08:39:25.288Z,80.84
2024-02-19T08:40:25.390Z,80.84
2024-02-19T08:41:25.401Z,80.80
2024-02-19T08:42:25.265Z,80.70
2024-02-19T08:43:25.407Z,80.80
2024-02-19T08:44:25.229Z,80.60
2024-02-19T08:45:27.524Z,80.60
2024-02-19T08:46:26.271Z,80.70
2024-02-19T08:47:25.262Z,80.35
2024-02-19T08:48:25.358Z,81.01
2024-02-19T08:49:25.267Z,81.21
2024-02-19T08:50:25.145Z,80.05
2024-02-19T08:51:25.513Z,79.98
2024-02-19T08:52:25.200Z,79.77
2024-02-19T08:53:25.103Z,79.77
2024-02-19T08:54:25.108Z,79.88
2024-02-19T08:55:25.130Z,79.36
2024-02-19T08:56:25.067Z,80.29
2024-02-19T08:57:25.388Z,80.39
2024-02-19T08:58:25.148Z,80.39
2024-02-19T08:59:25.046Z,80.29
2024-02-19T09:00:25.033Z,80.39
2024-02-19T09:01:25.137Z,80.25
2024-02-19T09:02:25.004Z,80.35
2024-02-19T09:03:25.041Z,80.05
2024-02-19T09:04:25.110Z,80.15
2024-02-19T09:05:25.018Z,79.53
2024-02-19T09:06:25.062Z,80.05
2024-02-19T09:07:25.068Z,79.43
2024-02-19T09:08:24.933Z,80.05
2024-02-19T09:09:24.924Z,79.43
2024-02-19T09:10:24.964Z,79.43
2024-02-19T09:11:24.920Z,79.39
2024-02-19T09:12:24.911Z,79.19
2024-02-19T09:13:24.961Z,79.39
2024-02-19T09:14:24.862Z,79.39
2024-02-19T09:15:24.900Z,79.70
2024-02-19T09:16:25.856Z,79.25
2024-02-19T09:17:24.851Z,79.25
2024-02-19T09:18:24.905Z,79.15
2024-02-19T09:19:24.952Z,79.15
2024-02-19T09:20:24.832Z,79.15
2024-02-19T09:21:24.781Z,79.15
2024-02-19T09:22:24.861Z,79.15
2024-02-19T09:23:25.756Z,79.11
2024-02-19T09:24:24.745Z,79.42
2024-02-19T09:25:25.134Z,79.42
2024-02-19T09:26:24.730Z,79.08
2024-02-19T09:27:24.749Z,79.28
2024-02-19T09:28:24.777Z,79.28
2024-02-19T09:29:24.719Z,79.28
2024-02-19T09:30:24.689Z,79.08
2024-02-19T09:31:24.878Z,79.08
2024-02-19T09:32:24.704Z,79.38
2024-02-19T09:33:24.746Z,79.38
2024-02-19T09:34:24.822Z,79.38
2024-02-19T09:35:24.650Z,79.18
2024-02-19T09:36:24.629Z,79.08
2024-02-19T09:37:24.711Z,79.59
2024-02-19T09:38:24.589Z,79.24
2024-02-19T09:39:24.606Z,79.55
2024-02-19T09:40:24.782Z,79.66
2024-02-19T09:41:24.553Z,79.75
2024-02-19T09:42:24.590Z,80.07
2024-02-19T09:43:24.648Z,80.17
2024-02-19T09:44:24.518Z,80.17
2024-02-19T09:45:24.531Z,80.07
2024-02-19T09:46:24.591Z,79.96
2024-02-19T09:47:24.509Z,79.66
2024-02-19T09:48:24.639Z,79.75
2024-02-19T09:49:24.644Z,79.93
2024-02-19T09:50:24.511Z,79.96
2024-02-19T09:51:32.647Z,79.82
2024-02-19T09:52:29.317Z,79.93
2024-02-19T09:53:25.451Z,79.72
2024-02-19T09:54:24.425Z,79.93
2024-02-19T09:55:24.931Z,80.03
2024-02-19T09:56:24.407Z,79.62
2024-02-19T09:57:24.377Z,79.93
2024-02-19T09:58:24.795Z,79.93
2024-02-19T09:59:24.354Z,80.23
2024-02-19T10:00:24.349Z,80.03
2024-02-19T10:01:24.431Z,80.23
2024-02-19T10:02:24.328Z,80.13
2024-02-19T10:03:24.304Z,80.03
2024-02-19T10:04:24.435Z,80.13
2024-02-19T10:05:24.422Z,80.23
2024-02-19T10:06:24.328Z,80.23
2024-02-19T10:07:24.368Z,80.23
2024-02-19T10:08:24.252Z,80.03
2024-02-19T10:09:24.244Z,80.33
2024-02-19T10:10:24.307Z,80.03
2024-02-19T10:11:24.232Z,79.93
2024-02-19T10:12:24.212Z,79.93
2024-02-19T10:13:24.623Z,79.72
2024-02-19T10:14:24.181Z,79.93
2024-02-19T10:15:24.169Z,79.72
2024-02-19T10:16:24.209Z,79.93
2024-02-19T10:17:24.229Z,79.52
2024-02-19T10:18:24.229Z,80.03
2024-02-19T10:19:24.168Z,80.23
2024-02-19T10:20:24.120Z,80.23
2024-02-19T10:21:24.140Z,80.88
2024-02-19T10:22:24.264Z,80.17
2024-02-19T10:23:24.628Z,80.17
2024-02-19T10:24:24.067Z,80.27
2024-02-19T10:25:24.202Z,80.17
2024-02-19T10:26:24.045Z,80.47
2024-02-19T10:27:24.057Z,80.27
2024-02-19T10:28:24.042Z,80.17
2024-02-19T10:29:24.020Z,80.21
2024-02-19T10:30:24.031Z,80.31
2024-02-19T10:31:24.159Z,80.21
2024-02-19T10:32:24.024Z,80.31
2024-02-19T10:33:24.138Z,80.21
2024-02-19T10:34:24.057Z,80.31
2024-02-19T10:35:23.969Z,80.21
2024-02-19T10:36:23.931Z,80.21
2024-02-19T10:37:24.043Z,80.31
2024-02-19T10:38:23.928Z,80.31
2024-02-19T10:39:23.897Z,80.35
2024-02-19T10:40:23.901Z,80.55
2024-02-19T10:41:23.874Z,80.45
2024-02-19T10:42:23.859Z,80.21
2024-02-19T10:43:23.896Z,80.51
2024-02-19T10:44:23.838Z,80.21
2024-02-19T10:45:23.845Z,79.69
2024-02-19T10:46:23.844Z,80.55
2024-02-19T10:47:23.812Z,80.65
2024-02-19T10:48:23.903Z,80.65
2024-02-19T10:49:23.904Z,80.65
2024-02-19T10:50:23.853Z,80.65
2024-02-19T10:51:23.784Z,80.55
2024-02-19T10:52:23.896Z,80.65
2024-02-19T10:53:23.740Z,80.55
2024-02-19T10:54:23.743Z,80.69
2024-02-19T10:55:32.563Z,80.49
2024-02-19T10:56:24.759Z,80.58
2024-02-19T10:57:23.690Z,80.58
2024-02-19T10:58:23.792Z,80.28
2024-02-19T10:59:23.673Z,80.28
2024-02-19T11:00:23.664Z,80.58
2024-02-19T11:01:23.760Z,80.38
2024-02-19T11:02:23.698Z,80.58
2024-02-19T11:03:23.660Z,80.58
2024-02-19T11:04:23.637Z,80.28
2024-02-19T11:05:23.627Z,80.28
2024-02-19T11:06:23.657Z,80.52
2024-02-19T11:07:23.760Z,80.28
2024-02-19T11:08:23.574Z,80.52
2024-02-19T11:09:28.951Z,80.52
2024-02-19T11:10:24.599Z,80.52
2024-02-19T11:11:23.858Z,80.83
2024-02-19T11:12:23.527Z,80.63
2024-02-19T11:13:23.767Z,80.52
2024-02-19T11:14:23.504Z,80.63
2024-02-19T11:15:23.511Z,80.63
2024-02-19T11:16:23.591Z,80.66
2024-02-19T11:17:23.465Z,80.77
2024-02-19T11:18:23.896Z,80.35
2024-02-19T11:19:23.538Z,80.56
2024-02-19T11:20:23.429Z,80.66
2024-02-19T11:21:23.463Z,80.66
2024-02-19T11:22:23.456Z,80.66
2024-02-19T11:23:23.402Z,80.66
2024-02-19T11:24:23.385Z,80.56
2024-02-19T11:25:23.482Z,80.56
2024-02-19T11:26:23.373Z,80.56
2024-02-19T11:27:23.385Z,80.60
2024-02-19T11:28:23.496Z,80.49
2024-02-19T11:29:27.736Z,80.49
2024-02-19T11:30:24.350Z,80.56
2024-02-19T11:31:23.322Z,80.35
2024-02-19T11:32:23.333Z,80.66
2024-02-19T11:33:23.285Z,80.49
2024-02-19T11:34:23.359Z,80.49
2024-02-19T11:35:23.321Z,80.80
2024-02-19T11:36:23.319Z,80.60
2024-02-19T11:37:23.290Z,80.49
2024-02-19T11:38:23.868Z,80.70
2024-02-19T11:39:23.223Z,80.70
2024-02-19T11:40:23.250Z,80.60
2024-02-19T11:41:23.189Z,80.60
2024-02-19T11:42:23.377Z,80.80
2024-02-19T11:43:23.206Z,80.49
2024-02-19T11:44:23.162Z,80.60
2024-02-19T11:45:23.884Z,80.39
2024-02-19T11:46:23.946Z,80.70
2024-02-19T11:47:23.141Z,80.60
2024-02-19T11:48:23.231Z,80.39
2024-02-19T11:49:23.229Z,80.39
2024-02-19T11:50:23.126Z,80.60
2024-02-19T11:51:23.087Z,80.70
2024-02-19T11:52:23.105Z,80.39
2024-02-19T11:53:23.101Z,80.60
2024-02-19T11:54:23.170Z,80.49
2024-02-19T11:55:23.070Z,80.60
2024-02-19T11:56:23.022Z,80.33
2024-02-19T11:57:26.635Z,80.60
2024-02-19T11:58:23.015Z,80.39
2024-02-19T11:59:22.997Z,80.39
2024-02-19T12:00:22.996Z,80.63
2024-02-19T12:01:23.117Z,80.39
2024-02-19T12:02:23.038Z,80.22
2024-02-19T12:03:22.951Z,80.33
2024-02-19T12:04:22.997Z,80.74
2024-02-19T12:05:22.988Z,80.43
2024-02-19T12:06:23.000Z,80.74
2024-02-19T12:07:23.025Z,80.70
2024-02-19T12:08:22.888Z,80.60
2024-02-19T12:09:22.923Z,80.39
2024-02-19T12:10:22.984Z,80.39
2024-02-19T12:11:22.889Z,80.39
2024-02-19T12:12:22.889Z,80.49
2024-02-19T12:13:22.876Z,80.60
2024-02-19T12:14:22.823Z,80.70
2024-02-19T12:15:22.963Z,80.49
2024-02-19T12:16:23.426Z,80.39
2024-02-19T12:17:22.839Z,80.70
2024-02-19T12:18:22.906Z,80.60
2024-02-19T12:19:22.994Z,80.70
2024-02-19T12:20:22.873Z,80.29
2024-02-19T12:21:22.754Z,80.49
2024-02-19T12:22:22.811Z,80.49
2024-02-19T12:23:22.723Z,80.60
2024-02-19T12:24:22.736Z,80.49
2024-02-19T12:25:22.889Z,80.39
2024-02-19T12:26:22.683Z,80.56
2024-02-19T12:27:22.673Z,80.35
2024-02-19T12:28:22.695Z,80.35
2024-02-19T12:29:22.651Z,80.56
2024-02-19T12:30:22.717Z,80.35
2024-02-19T12:31:22.729Z,80.56
2024-02-19T12:32:22.676Z,80.56
2024-02-19T12:33:22.714Z,80.56
2024-02-19T12:34:22.738Z,80.42
2024-02-19T12:35:22.938Z,80.63
2024-02-19T12:36:22.670Z,80.63
2024-02-19T12:37:22.618Z,80.63
2024-02-19T12:38:22.548Z,80.63
2024-02-19T12:39:22.540Z,80.63
2024-02-19T12:40:22.570Z,80.52
2024-02-19T12:41:22.539Z,80.52
2024-02-19T12:42:22.612Z,80.63
2024-02-19T12:43:22.571Z,80.63
2024-02-19T12:44:23.441Z,80.73
2024-02-19T12:45:22.474Z,80.63
2024-02-19T12:46:22.525Z,80.63
2024-02-19T12:47:23.583Z,80.73
2024-02-19T12:48:22.609Z,80.63
2024-02-19T12:49:22.596Z,80.63
2024-02-19T12:50:22.581Z,80.63
2024-02-19T12:51:22.404Z,80.52
2024-02-19T12:52:22.441Z,80.63